Time;durP1;ratioP1;P1;durP2;ratioP2;P2;SDS_P1;SDS_P2;PMS_P1;PMS_P2;Temp;Humidity;BMP_temperature;BMP_pressure;BME280_temperature;BME280_humidity;BME280_pressure;Samples;Min_cycle;Max_cycle;Signal;HPM_P1;HPM_P2
2021/07/30 00:01:05;;;;;;;0.80;0.80;;;;;;;;;;5007151;28;20490;-57
2021/07/30 00:03:32;;;;;;;0.80;0.80;;;;;;;;;;5007342;28;20053;-57
2021/07/30 00:06:15;;;;;;;0.90;0.90;;;;;;;;;;5007476;28;20471;-58
2021/07/30 00:08:42;;;;;;;1.80;0.80;;;;;;;;;;5008093;28;20065;-57
2021/07/30 00:11:09;;;;;;;1.88;0.82;;;;;;;;;;5008651;28;20105;-58
2021/07/30 00:13:36;;;;;;;0.70;0.70;;;;;;;;;;5003567;28;20041;-58
2021/07/30 00:16:02;;;;;;;2.45;0.80;;;;;;;;;;5011921;28;20065;-58
2021/07/30 00:18:29;;;;;;;1.02;1.00;;;;;;;;;;5011790;28;20037;-58
2021/07/30 00:20:56;;;;;;;4.47;1.80;;;;;;;;;;5012006;28;20125;-57
2021/07/30 00:23:23;;;;;;;2.13;0.98;;;;;;;;;;5007001;28;20105;-57
2021/07/30 00:25:49;;;;;;;1.13;1.00;;;;;;;;;;5001739;28;20100;-59
2021/07/30 00:28:16;;;;;;;0.88;0.88;;;;;;;;;;5000672;28;20042;-58
2021/07/30 00:30:43;;;;;;;1.75;0.90;;;;;;;;;;5006811;28;20120;-58
2021/07/30 00:33:09;;;;;;;1.00;1.00;;;;;;;;;;4993122;28;20046;-57
2021/07/30 00:35:36;;;;;;;1.63;0.90;;;;;;;;;;5020588;28;20651;-58
2021/07/30 00:38:03;;;;;;;0.90;0.90;;;;;;;;;;4999662;28;20117;-58
2021/07/30 00:40:29;;;;;;;1.13;1.02;;;;;;;;;;5013552;28;20046;-58
2021/07/30 00:43:00;;;;;;;2.05;1.00;;;;;;;;;;5010445;28;20033;-56
2021/07/30 00:45:27;;;;;;;1.35;0.75;;;;;;;;;;5008956;28;20481;-57
2021/07/30 00:47:53;;;;;;;1.30;0.90;;;;;;;;;;5008534;28;20490;-58
2021/07/30 00:50:21;;;;;;;0.90;0.90;;;;;;;;;;5010790;28;20042;-58
2021/07/30 00:52:49;;;;;;;0.90;0.90;;;;;;;;;;4996300;28;20161;-57
2021/07/30 00:55:15;;;;;;;0.80;0.80;;;;;;;;;;5009563;28;20034;-57
2021/07/30 00:57:42;;;;;;;0.90;0.80;;;;;;;;;;5007994;28;20052;-57
2021/07/30 01:00:09;;;;;;;0.82;0.82;;;;;;;;;;5009451;28;20066;-58
2021/07/30 01:02:36;;;;;;;1.95;1.10;;;;;;;;;;5009284;28;20108;-55
2021/07/30 01:05:06;;;;;;;0.90;0.80;;;;;;;;;;5012283;28;20045;-57
2021/07/30 01:07:32;;;;;;;0.80;0.80;;;;;;;;;;5009799;28;20050;-57
2021/07/30 01:10:00;;;;;;;0.77;0.77;;;;;;;;;;5011334;28;20378;-57
2021/07/30 01:12:27;;;;;;;0.90;0.90;;;;;;;;;;5011082;28;20045;-57
2021/07/30 01:14:54;;;;;;;2.58;0.90;;;;;;;;;;5009460;28;20104;-58
2021/07/30 01:17:21;;;;;;;0.82;0.82;;;;;;;;;;5012912;28;20486;-57
2021/07/30 01:19:48;;;;;;;1.15;1.10;;;;;;;;;;5005635;28;20101;-56
2021/07/30 01:22:38;;;;;;;0.90;0.90;;;;;;;;;;4997368;28;20076;-57
2021/07/30 01:25:04;;;;;;;0.80;0.80;;;;;;;;;;5008255;28;20181;-57
2021/07/30 01:27:31;;;;;;;0.82;0.82;;;;;;;;;;5009429;28;20136;-57
2021/07/30 01:29:58;;;;;;;1.00;1.00;;;;;;;;;;5003239;28;20058;-57
2021/07/30 01:32:25;;;;;;;2.10;0.90;;;;;;;;;;5005728;28;20041;-57
2021/07/30 01:34:51;;;;;;;0.80;0.80;;;;;;;;;;5004037;28;20089;-54
2021/07/30 01:37:18;;;;;;;1.70;0.90;;;;;;;;;;5002864;28;20062;-57
2021/07/30 01:39:45;;;;;;;1.00;1.00;;;;;;;;;;5009355;28;20042;-58
2021/07/30 01:42:11;;;;;;;0.80;0.80;;;;;;;;;;5010079;28;20129;-58
2021/07/30 01:44:38;;;;;;;1.90;1.00;;;;;;;;;;5010171;28;20494;-58
2021/07/30 01:47:06;;;;;;;1.35;0.80;;;;;;;;;;5009322;28;20042;-58
2021/07/30 01:49:33;;;;;;;0.90;0.85;;;;;;;;;;5000546;28;20100;-58
2021/07/30 01:52:00;;;;;;;2.08;1.45;;;;;;;;;;5009482;28;20037;-58
2021/07/30 01:54:27;;;;;;;1.70;0.80;;;;;;;;;;5010145;28;20057;-58
2021/07/30 01:56:53;;;;;;;0.85;0.85;;;;;;;;;;5006779;28;20058;-58
2021/07/30 01:59:20;;;;;;;1.70;1.35;;;;;;;;;;5009948;28;20053;-58
2021/07/30 02:01:47;;;;;;;1.35;0.90;;;;;;;;;;5002862;28;20053;-58
2021/07/30 02:04:14;;;;;;;1.02;1.02;;;;;;;;;;5004487;28;20030;-58
2021/07/30 02:06:43;;;;;;;3.25;0.90;;;;;;;;;;4998725;28;20088;-58
2021/07/30 02:09:10;;;;;;;0.90;0.90;;;;;;;;;;5002532;28;20096;-59
2021/07/30 02:11:39;;;;;;;0.90;0.90;;;;;;;;;;5009718;28;20146;-58
2021/07/30 02:14:15;;;;;;;0.90;0.90;;;;;;;;;;5009854;28;20890;-59
2021/07/30 02:16:49;;;;;;;2.67;0.90;;;;;;;;;;5005510;28;20121;-58
2021/07/30 02:19:17;;;;;;;1.10;0.80;;;;;;;;;;5001376;28;20095;-56
2021/07/30 02:21:44;;;;;;;5.35;1.00;;;;;;;;;;5011567;28;20058;-59
2021/07/30 02:24:10;;;;;;;1.30;1.00;;;;;;;;;;5009604;28;20053;-58
2021/07/30 02:26:37;;;;;;;1.42;1.10;;;;;;;;;;5009139;28;20124;-58
2021/07/30 02:29:04;;;;;;;0.90;0.90;;;;;;;;;;5010194;28;20057;-58
2021/07/30 02:31:31;;;;;;;0.95;0.95;;;;;;;;;;5009817;28;20061;-57
2021/07/30 02:33:57;;;;;;;1.23;0.90;;;;;;;;;;5009571;28;20398;-59
2021/07/30 02:36:24;;;;;;;1.58;0.93;;;;;;;;;;5004649;28;20130;-58
2021/07/30 02:38:51;;;;;;;1.35;1.00;;;;;;;;;;4996916;28;20046;-57
2021/07/30 02:41:18;;;;;;;0.90;0.90;;;;;;;;;;4998627;28;20096;-58
2021/07/30 02:43:45;;;;;;;1.80;1.48;;;;;;;;;;5003168;28;20137;-58
2021/07/30 02:46:16;;;;;;;1.10;1.10;;;;;;;;;;5010007;28;20042;-58
2021/07/30 02:48:44;;;;;;;0.90;0.90;;;;;;;;;;5010837;28;20061;-58
2021/07/30 02:51:12;;;;;;;0.93;0.93;;;;;;;;;;5010171;28;20080;-58
2021/07/30 02:53:39;;;;;;;1.00;0.85;;;;;;;;;;4995851;28;20073;-55
2021/07/30 02:56:06;;;;;;;0.80;0.80;;;;;;;;;;5008891;28;20072;-59
2021/07/30 02:58:33;;;;;;;2.97;1.10;;;;;;;;;;5008987;28;20060;-58
2021/07/30 03:01:00;;;;;;;0.90;0.90;;;;;;;;;;5009758;28;20034;-59
2021/07/30 03:03:27;;;;;;;1.00;1.00;;;;;;;;;;5008867;28;20042;-57
2021/07/30 03:05:53;;;;;;;0.90;0.90;;;;;;;;;;4996333;28;20085;-58
2021/07/30 03:08:22;;;;;;;0.80;0.80;;;;;;;;;;5005803;28;20076;-58
2021/07/30 03:10:48;;;;;;;0.90;0.90;;;;;;;;;;5008252;28;20045;-58
2021/07/30 03:13:15;;;;;;;1.33;0.90;;;;;;;;;;5011031;28;20046;-57
2021/07/30 03:15:41;;;;;;;1.23;1.08;;;;;;;;;;5008293;28;20038;-57
2021/07/30 03:18:08;;;;;;;2.63;1.00;;;;;;;;;;4998979;28;20042;-58
2021/07/30 03:20:35;;;;;;;0.95;0.95;;;;;;;;;;5004818;28;20073;-58
2021/07/30 03:23:01;;;;;;;1.00;1.00;;;;;;;;;;5007472;28;20549;-58
2021/07/30 03:25:28;;;;;;;2.65;1.20;;;;;;;;;;5009664;28;20099;-58
2021/07/30 03:27:55;;;;;;;1.85;1.00;;;;;;;;;;5009366;28;20092;-58
2021/07/30 03:30:22;;;;;;;1.50;1.40;;;;;;;;;;5009608;28;20092;-58
2021/07/30 03:32:48;;;;;;;2.00;0.90;;;;;;;;;;5008078;28;20038;-58
2021/07/30 03:35:15;;;;;;;0.90;0.90;;;;;;;;;;5002196;28;20050;-57
2021/07/30 03:37:42;;;;;;;1.23;0.90;;;;;;;;;;4998462;28;20062;-59
2021/07/30 03:40:08;;;;;;;1.30;1.00;;;;;;;;;;5000854;28;20034;-58
2021/07/30 03:42:35;;;;;;;1.52;0.90;;;;;;;;;;5009752;28;20070;-54
2021/07/30 03:45:02;;;;;;;0.98;0.98;;;;;;;;;;5002401;28;20044;-59
2021/07/30 03:47:29;;;;;;;1.10;1.00;;;;;;;;;;5000538;28;20046;-58
2021/07/30 03:49:56;;;;;;;0.93;0.93;;;;;;;;;;5014190;28;20157;-58
2021/07/30 03:52:23;;;;;;;1.10;1.00;;;;;;;;;;5009976;28;20031;-58
2021/07/30 03:54:49;;;;;;;1.25;1.25;;;;;;;;;;5013499;28;20533;-59
2021/07/30 03:57:16;;;;;;;3.60;1.00;;;;;;;;;;5012589;28;20034;-59
2021/07/30 03:59:43;;;;;;;4.63;1.20;;;;;;;;;;5011615;28;20360;-59
2021/07/30 04:02:10;;;;;;;2.45;1.00;;;;;;;;;;5001078;28;20443;-59
2021/07/30 04:04:37;;;;;;;1.10;1.10;;;;;;;;;;5005734;28;20064;-57
2021/07/30 04:07:04;;;;;;;2.88;0.90;;;;;;;;;;5013543;28;20459;-59
2021/07/30 04:09:30;;;;;;;1.45;1.08;;;;;;;;;;5012852;28;20138;-59
2021/07/30 04:11:57;;;;;;;1.15;1.00;;;;;;;;;;5012594;28;20065;-57
2021/07/30 04:14:24;;;;;;;0.90;0.90;;;;;;;;;;5012813;28;20057;-57
2021/07/30 04:16:51;;;;;;;1.17;1.08;;;;;;;;;;5009763;28;20490;-58
2021/07/30 04:19:17;;;;;;;1.00;1.00;;;;;;;;;;5008183;28;20103;-58
2021/07/30 04:21:44;;;;;;;2.08;1.00;;;;;;;;;;5013287;28;20042;-59
2021/07/30 04:24:11;;;;;;;0.98;0.98;;;;;;;;;;5011317;28;20069;-59
2021/07/30 04:26:38;;;;;;;1.00;1.00;;;;;;;;;;4997565;28;20042;-57
2021/07/30 04:29:04;;;;;;;1.38;1.27;;;;;;;;;;5006101;28;20422;-59
2021/07/30 04:31:31;;;;;;;1.00;1.00;;;;;;;;;;5007096;28;20074;-58
2021/07/30 04:33:58;;;;;;;2.97;1.00;;;;;;;;;;5008748;28;20129;-58
2021/07/30 04:36:24;;;;;;;2.45;1.00;;;;;;;;;;5005143;28;20034;-59
2021/07/30 04:38:51;;;;;;;1.73;1.08;;;;;;;;;;4995578;28;20482;-59
2021/07/30 04:41:18;;;;;;;1.15;1.10;;;;;;;;;;5006672;28;20066;-58
2021/07/30 04:43:45;;;;;;;0.80;0.80;;;;;;;;;;4998755;28;20033;-55
2021/07/30 04:46:18;;;;;;;0.95;0.95;;;;;;;;;;5013786;28;20053;-59
2021/07/30 04:48:45;;;;;;;1.30;1.20;;;;;;;;;;5011036;28;20870;-58
2021/07/30 04:51:12;;;;;;;1.67;0.90;;;;;;;;;;5007503;28;20042;-59
2021/07/30 04:53:39;;;;;;;1.15;1.10;;;;;;;;;;5006271;28;20046;-58
2021/07/30 04:56:05;;;;;;;1.00;1.00;;;;;;;;;;4999436;28;20041;-58
2021/07/30 04:58:32;;;;;;;1.00;1.00;;;;;;;;;;5000509;28;20042;-58
2021/07/30 05:01:02;;;;;;;1.10;1.10;;;;;;;;;;5007326;28;20123;-58
2021/07/30 05:03:29;;;;;;;2.10;1.30;;;;;;;;;;4994907;28;20046;-57
2021/07/30 05:05:56;;;;;;;1.40;1.30;;;;;;;;;;5007665;28;20034;-59
2021/07/30 05:08:23;;;;;;;2.10;1.30;;;;;;;;;;5000986;28;20069;-57
2021/07/30 05:10:50;;;;;;;1.50;1.30;;;;;;;;;;5012561;28;20042;-59
2021/07/30 05:13:17;;;;;;;2.03;1.20;;;;;;;;;;5008920;28;20069;-59
2021/07/30 05:15:44;;;;;;;1.50;1.00;;;;;;;;;;4997194;28;20113;-59
2021/07/30 05:18:11;;;;;;;2.47;1.00;;;;;;;;;;5004221;28;20034;-59
2021/07/30 05:20:39;;;;;;;2.80;1.00;;;;;;;;;;5006941;28;20568;-57
2021/07/30 05:23:05;;;;;;;1.33;1.00;;;;;;;;;;5010055;28;20112;-58
2021/07/30 05:25:32;;;;;;;3.42;1.10;;;;;;;;;;5010388;28;20046;-58
2021/07/30 05:27:59;;;;;;;1.27;1.17;;;;;;;;;;5009783;28;20100;-59
2021/07/30 05:30:26;;;;;;;2.15;1.35;;;;;;;;;;5012424;28;20476;-59
2021/07/30 05:32:52;;;;;;;1.42;1.33;;;;;;;;;;5014128;28;20406;-58
2021/07/30 05:35:19;;;;;;;1.23;1.13;;;;;;;;;;5005385;28;20451;-59
2021/07/30 05:37:46;;;;;;;1.20;1.10;;;;;;;;;;5007827;28;20042;-59
2021/07/30 05:40:12;;;;;;;1.90;1.00;;;;;;;;;;5009212;28;20495;-58
2021/07/30 05:42:39;;;;;;;4.97;1.35;;;;;;;;;;5010676;28;20073;-58
2021/07/30 05:45:06;;;;;;;0.98;0.98;;;;;;;;;;5009805;28;20096;-58
2021/07/30 05:47:33;;;;;;;0.90;0.90;;;;;;;;;;5010314;28;20077;-59
2021/07/30 05:49:59;;;;;;;1.13;0.90;;;;;;;;;;5005202;28;20542;-59
2021/07/30 05:52:26;;;;;;;0.80;0.80;;;;;;;;;;4997893;28;20030;-59
2021/07/30 05:54:53;;;;;;;5.28;0.90;;;;;;;;;;5000496;28;20042;-59
2021/07/30 05:57:20;;;;;;;0.90;0.90;;;;;;;;;;5003074;28;20136;-59
2021/07/30 05:59:48;;;;;;;4.95;0.90;;;;;;;;;;4993212;28;20038;-58
2021/07/30 06:02:15;;;;;;;0.88;0.88;;;;;;;;;;5010647;28;20038;-59
2021/07/30 06:04:42;;;;;;;0.90;0.90;;;;;;;;;;5004417;28;20061;-59
2021/07/30 06:07:08;;;;;;;0.82;0.82;;;;;;;;;;4998758;28;20050;-59
2021/07/30 06:09:35;;;;;;;1.63;1.00;;;;;;;;;;5003164;28;20518;-59
2021/07/30 06:12:02;;;;;;;1.05;0.95;;;;;;;;;;5026746;28;20038;-59
2021/07/30 06:14:29;;;;;;;0.80;0.80;;;;;;;;;;5003112;28;20053;-59
2021/07/30 06:16:56;;;;;;;1.70;1.60;;;;;;;;;;5001247;28;20060;-60
2021/07/30 06:19:23;;;;;;;3.90;0.90;;;;;;;;;;5004496;28;20499;-60
2021/07/30 06:21:50;;;;;;;0.85;0.85;;;;;;;;;;5006172;28;20092;-59
2021/07/30 06:24:17;;;;;;;1.50;0.80;;;;;;;;;;5009563;28;20042;-60
2021/07/30 06:26:43;;;;;;;1.67;0.90;;;;;;;;;;5002804;28;20081;-59
2021/07/30 06:29:10;;;;;;;1.15;0.80;;;;;;;;;;5000647;28;20589;-60
2021/07/30 06:31:37;;;;;;;0.80;0.80;;;;;;;;;;4994344;28;20050;-60
2021/07/30 06:34:03;;;;;;;0.90;0.90;;;;;;;;;;5009531;28;20512;-60
2021/07/30 06:36:30;;;;;;;0.90;0.90;;;;;;;;;;5001716;28;20065;-59
2021/07/30 06:38:57;;;;;;;0.95;0.93;;;;;;;;;;5003599;28;20050;-60
2021/07/30 06:41:24;;;;;;;0.80;0.80;;;;;;;;;;5004256;28;20034;-60
2021/07/30 06:43:50;;;;;;;0.90;0.90;;;;;;;;;;4993396;28;20081;-60
2021/07/30 06:46:17;;;;;;;1.30;0.80;;;;;;;;;;5002445;28;20046;-60
2021/07/30 06:48:44;;;;;;;0.80;0.80;;;;;;;;;;4994314;28;20042;-60
2021/07/30 06:51:11;;;;;;;1.73;0.90;;;;;;;;;;5007772;28;20388;-60
2021/07/30 06:53:38;;;;;;;0.80;0.80;;;;;;;;;;5001948;28;20046;-60
2021/07/30 06:56:11;;;;;;;1.67;0.77;;;;;;;;;;4994373;28;20042;-60
2021/07/30 06:58:42;;;;;;;3.60;0.90;;;;;;;;;;5009327;28;20069;-60
2021/07/30 07:01:09;;;;;;;1.67;0.90;;;;;;;;;;5010024;28;20670;-60
2021/07/30 07:03:36;;;;;;;1.55;0.80;;;;;;;;;;5008923;28;20108;-60
2021/07/30 07:06:03;;;;;;;1.70;0.80;;;;;;;;;;5008978;28;20045;-60
2021/07/30 07:08:30;;;;;;;2.70;1.02;;;;;;;;;;5003554;28;20053;-59
2021/07/30 07:10:57;;;;;;;1.20;0.90;;;;;;;;;;5010649;28;20077;-59
2021/07/30 07:13:24;;;;;;;0.98;0.90;;;;;;;;;;5008411;28;20041;-59
2021/07/30 07:15:50;;;;;;;1.60;1.00;;;;;;;;;;4996938;28;20130;-59
2021/07/30 07:18:17;;;;;;;1.08;1.08;;;;;;;;;;5004260;28;20053;-59
2021/07/30 07:20:44;;;;;;;1.00;1.00;;;;;;;;;;5007478;28;20553;-59
2021/07/30 07:23:10;;;;;;;0.90;0.80;;;;;;;;;;5006508;28;20542;-59
2021/07/30 07:25:38;;;;;;;2.90;1.42;;;;;;;;;;5008103;28;20113;-59
2021/07/30 07:28:05;;;;;;;0.80;0.80;;;;;;;;;;5009312;28;20045;-59
2021/07/30 07:30:31;;;;;;;1.30;0.90;;;;;;;;;;5005591;28;20170;-59
2021/07/30 07:32:58;;;;;;;1.13;0.80;;;;;;;;;;4993633;28;20506;-59
2021/07/30 07:35:25;;;;;;;0.77;0.77;;;;;;;;;;5010594;28;20136;-60
2021/07/30 07:37:52;;;;;;;2.67;0.80;;;;;;;;;;5000321;28;20065;-59
2021/07/30 07:40:18;;;;;;;5.03;0.80;;;;;;;;;;5001282;28;20065;-60
2021/07/30 07:42:45;;;;;;;1.50;1.00;;;;;;;;;;5008733;28;20049;-60
2021/07/30 07:45:12;;;;;;;0.80;0.80;;;;;;;;;;5006787;28;20415;-59
2021/07/30 07:47:38;;;;;;;2.35;0.80;;;;;;;;;;5010703;28;20077;-60
2021/07/30 07:50:05;;;;;;;1.35;1.15;;;;;;;;;;5006277;28;20041;-60
2021/07/30 07:52:35;;;;;;;0.80;0.80;;;;;;;;;;4991150;28;20422;-60
2021/07/30 07:55:08;;;;;;;1.67;0.80;;;;;;;;;;5007244;28;20043;-60
2021/07/30 07:57:35;;;;;;;3.70;0.70;;;;;;;;;;5007742;28;20409;-60
2021/07/30 08:00:02;;;;;;;2.10;0.80;;;;;;;;;;5010406;28;20069;-60
2021/07/30 08:02:29;;;;;;;1.17;0.70;;;;;;;;;;5008346;28;20057;-60
2021/07/30 08:04:56;;;;;;;1.80;0.70;;;;;;;;;;4995569;28;20540;-60
2021/07/30 08:07:23;;;;;;;5.00;0.70;;;;;;;;;;5002969;28;20040;-60
2021/07/30 08:09:52;;;;;;;0.95;0.85;;;;;;;;;;4997455;28;20038;-60
2021/07/30 08:12:19;;;;;;;2.78;0.80;;;;;;;;;;5008289;28;20382;-60
2021/07/30 08:14:46;;;;;;;5.30;0.80;;;;;;;;;;5006053;28;20078;-60
2021/07/30 08:17:14;;;;;;;1.90;0.70;;;;;;;;;;4992460;28;20061;-60
2021/07/30 08:19:42;;;;;;;1.45;0.90;;;;;;;;;;5000525;28;20042;-60
2021/07/30 08:22:08;;;;;;;1.13;0.80;;;;;;;;;;5005433;28;20125;-60
2021/07/30 08:24:35;;;;;;;3.53;0.60;;;;;;;;;;5014574;28;20475;-61
2021/07/30 08:27:06;;;;;;;1.05;0.85;;;;;;;;;;5006826;28;20046;-61
2021/07/30 08:29:33;;;;;;;1.45;0.80;;;;;;;;;;5007944;28;20057;-60
2021/07/30 08:31:59;;;;;;;0.77;0.70;;;;;;;;;;5010791;28;20549;-60
2021/07/30 08:34:26;;;;;;;0.98;0.80;;;;;;;;;;5010967;28;20441;-60
2021/07/30 08:36:52;;;;;;;1.85;0.70;;;;;;;;;;5006551;28;20120;-60
2021/07/30 08:39:19;;;;;;;1.65;0.85;;;;;;;;;;5010156;28;20061;-60
2021/07/30 08:41:49;;;;;;;2.30;0.80;;;;;;;;;;5009112;28;20040;-60
2021/07/30 08:44:15;;;;;;;0.70;0.70;;;;;;;;;;5012053;28;20129;-60
2021/07/30 08:46:43;;;;;;;5.35;0.80;;;;;;;;;;5009385;28;20034;-60
2021/07/30 08:49:11;;;;;;;2.20;0.80;;;;;;;;;;4996101;28;20057;-61
2021/07/30 08:51:42;;;;;;;1.90;0.70;;;;;;;;;;5012444;28;20125;-60
2021/07/30 08:54:09;;;;;;;3.17;0.70;;;;;;;;;;5011336;28;20096;-61
2021/07/30 08:56:36;;;;;;;2.08;0.60;;;;;;;;;;5001295;28;20058;-62
2021/07/30 08:59:04;;;;;;;1.70;0.70;;;;;;;;;;5008016;28;20217;-61
2021/07/30 09:01:31;;;;;;;0.82;0.70;;;;;;;;;;5011370;28;20144;-61
2021/07/30 09:03:58;;;;;;;4.00;0.70;;;;;;;;;;5004273;28;20053;-61
2021/07/30 09:06:24;;;;;;;2.58;0.65;;;;;;;;;;5000969;28;20600;-61
2021/07/30 09:08:54;;;;;;;2.05;0.70;;;;;;;;;;5012941;28;20149;-61
2021/07/30 09:11:30;;;;;;;2.97;0.70;;;;;;;;;;5008926;28;20042;-61
2021/07/30 09:13:58;;;;;;;15.00;0.93;;;;;;;;;;5010291;28;20080;-61
2021/07/30 09:16:25;;;;;;;2.35;0.77;;;;;;;;;;5001473;28;20463;-61
2021/07/30 09:18:52;;;;;;;0.70;0.70;;;;;;;;;;5002514;28;20069;-60
2021/07/30 09:21:19;;;;;;;0.60;0.60;;;;;;;;;;5025143;28;20466;-61
2021/07/30 09:23:50;;;;;;;1.17;0.70;;;;;;;;;;5010155;28;20441;-62
2021/07/30 09:26:43;;;;;;;1.30;0.60;;;;;;;;;;5008827;28;20054;-61
2021/07/30 09:29:11;;;;;;;1.38;0.70;;;;;;;;;;5011172;28;20068;-62
2021/07/30 09:31:49;;;;;;;1.02;0.60;;;;;;;;;;5010805;28;20100;-61
2021/07/30 09:34:20;;;;;;;0.60;0.60;;;;;;;;;;5011180;28;20050;-62
2021/07/30 09:36:48;;;;;;;2.15;0.95;;;;;;;;;;5012009;28;20452;-62
2021/07/30 09:39:17;;;;;;;1.27;0.60;;;;;;;;;;5008456;28;20030;-61
2021/07/30 09:42:10;;;;;;;0.50;0.50;;;;;;;;;;5011563;28;20037;-61
2021/07/30 09:44:52;;;;;;;2.15;0.50;;;;;;;;;;5011981;28;20070;-61
2021/07/30 09:47:22;;;;;;;0.90;0.55;;;;;;;;;;5009775;28;20033;-62
2021/07/30 09:49:50;;;;;;;0.88;0.88;;;;;;;;;;5008744;28;20115;-61
2021/07/30 09:52:17;;;;;;;1.08;0.60;;;;;;;;;;5011756;28;20034;-61
2021/07/30 09:54:45;;;;;;;3.30;0.60;;;;;;;;;;5010422;28;20054;-61
2021/07/30 09:57:13;;;;;;;1.45;0.60;;;;;;;;;;5010312;28;20368;-62
2021/07/30 09:59:42;;;;;;;0.50;0.50;;;;;;;;;;5010199;28;20092;-61
2021/07/30 10:02:13;;;;;;;1.98;0.80;;;;;;;;;;5007947;28;20109;-62
2021/07/30 10:04:44;;;;;;;0.50;0.50;;;;;;;;;;5011838;28;20046;-62
2021/07/30 10:07:15;;;;;;;0.93;0.63;;;;;;;;;;5009587;28;20427;-61
2021/07/30 10:12:34;;;;;;;0.70;0.70;;;;;;;;;;5006900;28;20140;-61
2021/07/30 10:15:03;;;;;;;0.50;0.50;;;;;;;;;;5006164;28;20057;-61
2021/07/30 10:17:31;;;;;;;1.35;0.45;;;;;;;;;;5010145;28;20042;-61
2021/07/30 10:20:05;;;;;;;1.95;0.50;;;;;;;;;;5008763;28;20042;-61
2021/07/30 10:22:43;;;;;;;1.23;0.50;;;;;;;;;;5008553;28;20100;-61
2021/07/30 10:25:15;;;;;;;0.50;0.50;;;;;;;;;;5009379;28;20041;-62
2021/07/30 10:27:43;;;;;;;0.73;0.73;;;;;;;;;;5009322;28;20618;-61
2021/07/30 10:30:14;;;;;;;0.82;0.50;;;;;;;;;;5010080;28;20494;-62
2021/07/30 10:32:54;;;;;;;1.05;0.50;;;;;;;;;;5010800;28;20095;-61
2021/07/30 10:35:26;;;;;;;0.68;0.50;;;;;;;;;;5006875;28;20053;-61
2021/07/30 10:38:08;;;;;;;0.52;0.52;;;;;;;;;;5012034;28;20038;-61
2021/07/30 10:40:36;;;;;;;0.50;0.50;;;;;;;;;;5007832;28;20387;-61
2021/07/30 10:43:03;;;;;;;0.85;0.50;;;;;;;;;;5007445;28;20042;-59
2021/07/30 10:45:30;;;;;;;0.50;0.50;;;;;;;;;;5009758;28;20059;-62
2021/07/30 10:48:12;;;;;;;2.28;0.50;;;;;;;;;;5009833;28;20073;-61
2021/07/30 10:50:45;;;;;;;0.55;0.47;;;;;;;;;;5006678;28;20046;-61
2021/07/30 10:53:30;;;;;;;3.38;0.57;;;;;;;;;;5005539;28;20096;-61
2021/07/30 10:55:58;;;;;;;2.15;0.50;;;;;;;;;;4998144;28;20045;-61
2021/07/30 10:58:39;;;;;;;0.50;0.50;;;;;;;;;;5008824;28;20121;-61
2021/07/30 11:01:07;;;;;;;0.98;0.50;;;;;;;;;;5008772;28;20129;-62
2021/07/30 11:03:49;;;;;;;0.85;0.50;;;;;;;;;;5008567;28;20073;-61
2021/07/30 11:06:16;;;;;;;0.93;0.50;;;;;;;;;;5010708;28;20042;-62
2021/07/30 11:09:19;;;;;;;1.90;0.60;;;;;;;;;;5009599;28;20073;-61
2021/07/30 11:12:02;;;;;;;0.40;0.40;;;;;;;;;;5009045;28;20053;-62
2021/07/30 11:14:29;;;;;;;0.50;0.50;;;;;;;;;;5027211;28;20127;-62
2021/07/30 11:16:57;;;;;;;0.50;0.50;;;;;;;;;;5025343;28;20041;-62
2021/07/30 11:19:28;;;;;;;0.50;0.50;;;;;;;;;;5026427;28;20580;-62
2021/07/30 11:21:59;;;;;;;1.58;0.57;;;;;;;;;;5024127;28;20138;-62
2021/07/30 11:24:26;;;;;;;0.40;0.40;;;;;;;;;;5026909;28;20041;-61
2021/07/30 11:26:52;;;;;;;0.40;0.40;;;;;;;;;;5025989;28;20056;-62
2021/07/30 11:29:28;;;;;;;1.38;0.50;;;;;;;;;;5026047;28;20104;-61
2021/07/30 11:32:05;;;;;;;0.50;0.50;;;;;;;;;;5025481;28;20047;-62
2021/07/30 11:34:33;;;;;;;1.98;0.40;;;;;;;;;;5025377;28;20494;-61
2021/07/30 11:37:01;;;;;;;0.65;0.50;;;;;;;;;;5018781;28;20073;-62
2021/07/30 11:39:33;;;;;;;0.40;0.40;;;;;;;;;;5023699;28;20072;-58
2021/07/30 11:42:00;;;;;;;0.40;0.40;;;;;;;;;;5025277;28;20052;-57
2021/07/30 11:44:27;;;;;;;0.40;0.40;;;;;;;;;;5022337;28;20120;-57
2021/07/30 11:46:55;;;;;;;0.40;0.40;;;;;;;;;;5014736;28;20077;-57
2021/07/30 11:49:29;;;;;;;3.10;0.40;;;;;;;;;;5007126;28;20045;-57
2021/07/30 11:51:56;;;;;;;0.40;0.40;;;;;;;;;;5008849;28;20096;-55
2021/07/30 11:54:24;;;;;;;0.65;0.50;;;;;;;;;;5009308;28;20034;-54
2021/07/30 11:56:51;;;;;;;1.30;0.50;;;;;;;;;;5008364;28;20042;-56
2021/07/30 11:59:18;;;;;;;0.40;0.40;;;;;;;;;;5010643;28;20678;-57
2021/07/30 12:02:01;;;;;;;0.40;0.40;;;;;;;;;;5007286;28;20123;-57
2021/07/30 12:04:28;;;;;;;0.50;0.50;;;;;;;;;;5008289;28;20041;-56
2021/07/30 12:06:56;;;;;;;0.60;0.50;;;;;;;;;;5011094;28;20612;-57
2021/07/30 12:09:26;;;;;;;0.50;0.40;;;;;;;;;;5012614;28;20042;-56
2021/07/30 12:11:57;;;;;;;0.47;0.47;;;;;;;;;;5011150;28;20398;-55
2021/07/30 12:14:26;;;;;;;0.50;0.50;;;;;;;;;;5011874;28;20045;-57
2021/07/30 12:16:53;;;;;;;0.77;0.52;;;;;;;;;;5011953;28;20460;-56
2021/07/30 12:19:30;;;;;;;0.63;0.50;;;;;;;;;;5012288;28;20533;-57
2021/07/30 12:22:04;;;;;;;1.95;0.40;;;;;;;;;;5011298;28;20045;-57
2021/07/30 12:24:32;;;;;;;1.95;0.40;;;;;;;;;;5011913;28;20042;-56
2021/07/30 12:27:34;;;;;;;0.47;0.47;;;;;;;;;;5017945;28;20551;-58
2021/07/30 12:30:02;;;;;;;0.50;0.50;;;;;;;;;;5029240;28;20038;-56
2021/07/30 12:32:37;;;;;;;1.52;0.52;;;;;;;;;;5036900;28;20060;-57
2021/07/30 12:35:05;;;;;;;0.40;0.40;;;;;;;;;;5030107;28;20053;-54
2021/07/30 12:37:32;;;;;;;0.40;0.40;;;;;;;;;;5028870;28;20140;-57
2021/07/30 12:40:01;;;;;;;0.40;0.40;;;;;;;;;;5037637;28;20053;-57
2021/07/30 12:42:29;;;;;;;1.20;0.50;;;;;;;;;;5032659;28;20052;-56
2021/07/30 12:45:06;;;;;;;0.43;0.40;;;;;;;;;;5042859;28;20095;-59
2021/07/30 12:47:34;;;;;;;0.65;0.65;;;;;;;;;;5033984;28;20208;-56
2021/07/30 12:50:20;;;;;;;0.40;0.40;;;;;;;;;;5029953;28;20042;-57
2021/07/30 12:53:05;;;;;;;1.40;0.50;;;;;;;;;;5027056;28;20378;-57
2021/07/30 12:55:51;;;;;;;0.40;0.40;;;;;;;;;;5030974;28;20076;-57
2021/07/30 12:58:25;;;;;;;1.00;0.40;;;;;;;;;;5029100;28;20064;-57
2021/07/30 13:00:52;;;;;;;1.65;0.50;;;;;;;;;;5027879;28;20152;-57
2021/07/30 13:03:19;;;;;;;0.55;0.50;;;;;;;;;;5023782;28;20050;-57
2021/07/30 13:05:49;;;;;;;1.17;0.40;;;;;;;;;;5005861;28;20065;-57
2021/07/30 13:08:18;;;;;;;0.40;0.40;;;;;;;;;;5012477;28;20521;-56
2021/07/30 13:10:45;;;;;;;0.88;0.55;;;;;;;;;;5009026;28;20046;-57
2021/07/30 13:13:15;;;;;;;1.15;0.40;;;;;;;;;;5009548;28;20101;-57
2021/07/30 13:15:43;;;;;;;0.77;0.40;;;;;;;;;;5014330;28;20088;-57
2021/07/30 13:18:10;;;;;;;0.40;0.40;;;;;;;;;;5009394;28;20753;-57
2021/07/30 13:20:37;;;;;;;2.08;0.47;;;;;;;;;;5011043;28;20099;-57
2021/07/30 13:23:04;;;;;;;0.50;0.50;;;;;;;;;;5011074;28;20044;-57
2021/07/30 13:25:35;;;;;;;1.48;0.40;;;;;;;;;;5010776;28;20042;-55
2021/07/30 13:28:03;;;;;;;0.50;0.50;;;;;;;;;;5015739;28;20061;-57
2021/07/30 13:30:30;;;;;;;0.43;0.43;;;;;;;;;;5014299;28;20445;-57
2021/07/30 13:32:59;;;;;;;0.40;0.40;;;;;;;;;;5012483;28;20112;-57
2021/07/30 13:35:26;;;;;;;0.50;0.50;;;;;;;;;;5011746;28;20088;-55
2021/07/30 13:37:53;;;;;;;1.40;0.40;;;;;;;;;;5010444;28;20042;-57
2021/07/30 13:40:20;;;;;;;1.00;0.40;;;;;;;;;;5011425;28;20113;-57
2021/07/30 13:42:46;;;;;;;0.40;0.40;;;;;;;;;;5010299;28;20108;-57
2021/07/30 13:45:13;;;;;;;1.65;0.50;;;;;;;;;;5024759;28;20075;-57
2021/07/30 13:47:40;;;;;;;0.40;0.40;;;;;;;;;;5008811;28;20057;-55
2021/07/30 13:50:07;;;;;;;1.75;0.85;;;;;;;;;;5009773;28;20069;-57
2021/07/30 13:52:34;;;;;;;0.40;0.40;;;;;;;;;;5011871;28;20050;-57
2021/07/30 13:55:01;;;;;;;1.65;0.40;;;;;;;;;;5010885;28;20359;-57
2021/07/30 13:57:28;;;;;;;1.60;0.40;;;;;;;;;;5012670;28;20104;-56
2021/07/30 13:59:55;;;;;;;1.27;0.80;;;;;;;;;;5010461;28;20159;-57
2021/07/30 14:02:21;;;;;;;1.00;0.40;;;;;;;;;;5008373;28;20590;-57
2021/07/30 14:04:48;;;;;;;1.38;0.40;;;;;;;;;;5011395;28;20077;-56
2021/07/30 14:07:15;;;;;;;0.47;0.47;;;;;;;;;;5010564;28;20115;-57
2021/07/30 14:09:42;;;;;;;2.25;0.50;;;;;;;;;;5010932;28;20124;-57
2021/07/30 14:12:08;;;;;;;1.20;0.45;;;;;;;;;;5009130;28;20038;-57
2021/07/30 14:14:36;;;;;;;0.40;0.30;;;;;;;;;;5009066;28;20121;-57
2021/07/30 14:17:03;;;;;;;1.10;0.70;;;;;;;;;;5012039;28;20074;-57
2021/07/30 14:19:39;;;;;;;0.40;0.40;;;;;;;;;;5008999;28;20109;-57
2021/07/30 14:22:07;;;;;;;1.48;0.40;;;;;;;;;;5009746;28;20044;-57
2021/07/30 14:24:33;;;;;;;0.88;0.45;;;;;;;;;;5009788;28;20706;-57
2021/07/30 14:27:00;;;;;;;0.85;0.47;;;;;;;;;;5008976;28;20038;-57
2021/07/30 14:29:28;;;;;;;0.70;0.50;;;;;;;;;;5009816;28;20057;-58
2021/07/30 14:31:54;;;;;;;0.40;0.40;;;;;;;;;;5007918;28;20069;-55
2021/07/30 14:34:21;;;;;;;1.27;0.40;;;;;;;;;;5020075;28;20570;-57
2021/07/30 14:36:47;;;;;;;1.48;0.40;;;;;;;;;;5010555;28;20044;-57
2021/07/30 14:39:19;;;;;;;0.40;0.40;;;;;;;;;;5007989;28;20430;-54
2021/07/30 14:41:46;;;;;;;3.83;0.40;;;;;;;;;;5010195;28;20034;-57
2021/07/30 14:44:13;;;;;;;1.33;0.40;;;;;;;;;;5007807;28;20041;-57
2021/07/30 14:46:39;;;;;;;0.40;0.40;;;;;;;;;;5007266;28;20416;-57
2021/07/30 14:49:07;;;;;;;0.93;0.93;;;;;;;;;;5011267;28;20061;-57
2021/07/30 14:51:33;;;;;;;0.47;0.47;;;;;;;;;;5010513;28;20061;-57
2021/07/30 14:54:00;;;;;;;1.38;0.40;;;;;;;;;;5010270;28;20092;-57